METAR Data
IDs: Format: Raw Decoded Include TAF

Data at: 1810 UTC 16 Oct 2021

LGAV 161750Z 02003KT 9999 FEW030 19/11 Q1014 NOSIG